Time;durP1;ratioP1;P1;durP2;ratioP2;P2;SDS_P1;SDS_P2;PMS_P1;PMS_P2;Temp;Humidity;BMP_temperature;BMP_pressure;BME280_temperature;BME280_humidity;BME280_pressure;Samples;Min_cycle;Max_cycle;Signal;HPM_P1;HPM_P2
2022/10/09 00:01:22;;;;;;;17.20;10.88;;;;;;;10.50;100.00;101115.50;1665806;85;21019;-70
2022/10/09 00:03:53;;;;;;;14.85;10.10;;;;;;;10.50;100.00;101109.06;1670401;84;22135;-71
2022/10/09 00:06:25;;;;;;;14.03;10.30;;;;;;;10.52;100.00;101104.28;1666401;84;21349;-70
2022/10/09 00:08:53;;;;;;;15.00;10.25;;;;;;;10.57;100.00;101101.54;1661362;84;21051;-70
2022/10/09 00:11:25;;;;;;;15.93;10.48;;;;;;;10.76;100.00;101096.58;1670006;84;21130;-70
2022/10/09 00:13:54;;;;;;;15.60;10.70;;;;;;;10.91;100.00;101089.60;1663829;84;21043;-70
2022/10/09 00:16:22;;;;;;;14.43;9.43;;;;;;;10.98;100.00;101084.60;1662336;84;21098;-70
2022/10/09 00:18:51;;;;;;;16.00;9.65;;;;;;;11.00;100.00;101094.86;1682260;84;21102;-69
2022/10/09 00:21:31;;;;;;;16.30;10.13;;;;;;;10.95;100.00;101086.02;1674193;84;21051;-69
2022/10/09 00:24:02;;;;;;;15.40;9.93;;;;;;;10.94;100.00;101085.61;1668818;84;21527;-70
2022/10/09 00:26:31;;;;;;;14.07;9.60;;;;;;;10.87;100.00;101081.59;1649935;85;21075;-70
2022/10/09 00:28:58;;;;;;;14.00;9.55;;;;;;;10.84;100.00;101080.41;1687815;84;21048;-70
2022/10/09 00:31:26;;;;;;;13.70;9.53;;;;;;;10.80;100.00;101078.83;1676648;84;21078;-70
2022/10/09 00:33:53;;;;;;;13.50;9.45;;;;;;;10.77;100.00;101075.09;1682826;84;21110;-70
2022/10/09 00:36:24;;;;;;;16.30;10.45;;;;;;;10.72;100.00;101072.66;1668062;84;21551;-70
2022/10/09 00:38:52;;;;;;;14.70;9.90;;;;;;;10.71;100.00;101075.31;1668612;85;21086;-70
2022/10/09 00:41:27;;;;;;;15.25;9.80;;;;;;;10.66;100.00;101073.34;1672812;84;21003;-69
2022/10/09 00:44:00;;;;;;;12.93;9.38;;;;;;;10.62;100.00;101073.88;1667280;85;21090;-70
2022/10/09 00:46:41;;;;;;;15.13;10.05;;;;;;;10.58;100.00;101074.89;1675026;84;21158;-70
2022/10/09 00:49:27;;;;;;;16.32;9.85;;;;;;;10.52;100.00;101070.81;1676719;83;21342;-70
2022/10/09 00:51:58;;;;;;;16.07;9.30;;;;;;;10.48;100.00;101069.21;1690195;83;21015;-69
2022/10/09 00:54:29;;;;;;;14.78;10.40;;;;;;;10.49;100.00;101062.35;1676913;84;21047;-70
2022/10/09 00:56:57;;;;;;;14.20;10.08;;;;;;;10.47;100.00;101068.00;1672492;84;22508;-70
2022/10/09 00:59:25;;;;;;;16.73;10.72;;;;;;;10.44;100.00;101059.91;1675382;85;21082;-70
2022/10/09 01:01:52;;;;;;;15.88;10.13;;;;;;;10.44;100.00;101058.62;1644661;85;21049;-70
2022/10/09 01:04:19;;;;;;;17.62;10.00;;;;;;;10.43;100.00;101063.40;1645778;84;21050;-69
2022/10/09 01:06:54;;;;;;;17.75;10.38;;;;;;;10.41;100.00;101058.75;1666456;84;21594;-70
2022/10/09 01:09:42;;;;;;;17.30;10.23;;;;;;;10.39;100.00;101054.94;1664356;85;21231;-70
2022/10/09 01:12:19;;;;;;;14.98;9.80;;;;;;;10.39;100.00;101054.11;1674914;84;21610;-70
2022/10/09 01:15:14;;;;;;;14.28;9.98;;;;;;;10.36;100.00;101051.63;1669405;85;21046;-70
2022/10/09 01:17:58;;;;;;;16.87;10.10;;;;;;;10.37;100.00;101058.46;1679273;85;21087;-69
2022/10/09 01:20:57;;;;;;;14.73;10.00;;;;;;;10.35;100.00;101049.50;1675578;84;21044;-69
2022/10/09 01:23:44;;;;;;;15.13;9.43;;;;;;;10.32;100.00;101050.05;1672412;84;21048;-70
2022/10/09 01:26:34;;;;;;;14.25;9.63;;;;;;;10.30;100.00;101056.55;1669287;84;21015;-70
2022/10/09 01:29:08;;;;;;;16.10;10.20;;;;;;;10.22;100.00;101058.52;1664494;85;21546;-70
2022/10/09 01:31:40;;;;;;;14.47;10.05;;;;;;;10.10;100.00;101057.19;1683169;85;22167;-70
2022/10/09 01:34:09;;;;;;;18.60;11.22;;;;;;;10.03;100.00;101060.39;1675966;85;21066;-71
2022/10/09 01:36:40;;;;;;;17.12;11.05;;;;;;;9.99;100.00;101063.95;1663990;85;21035;-71
2022/10/09 01:39:12;;;;;;;18.85;12.43;;;;;;;9.97;100.00;101064.91;1673234;84;21120;-71
2022/10/09 01:41:39;;;;;;;16.42;12.13;;;;;;;9.95;100.00;101066.23;1677975;84;21571;-70
2022/10/09 01:44:22;;;;;;;49.58;24.15;;;;;;;9.95;100.00;101067.52;1676285;85;21068;-70
2022/10/09 01:46:49;;;;;;;102.55;47.17;;;;;;;9.96;100.00;101066.64;1688252;85;21123;-71
2022/10/09 01:49:43;;;;;;;307.92;136.50;;;;;;;9.97;100.00;101066.19;1672331;84;21079;-70
2022/10/09 01:52:38;;;;;;;282.20;127.62;;;;;;;9.99;100.00;101065.69;1684427;84;21563;-70
2022/10/09 01:55:23;;;;;;;210.30;97.47;;;;;;;10.06;100.00;101060.76;1675332;84;21126;-70
2022/10/09 01:58:08;;;;;;;251.25;115.25;;;;;;;10.12;100.00;101056.69;1681410;84;21061;-70
2022/10/09 02:00:40;;;;;;;239.60;109.95;;;;;;;10.17;100.00;101057.36;1662427;84;21546;-69
2022/10/09 02:03:11;;;;;;;233.38;110.25;;;;;;;10.16;100.00;101057.44;1673873;85;21077;-70
2022/10/09 02:05:41;;;;;;;222.75;105.15;;;;;;;10.14;100.00;101051.50;1679564;85;21121;-70
2022/10/09 02:08:12;;;;;;;205.85;96.00;;;;;;;10.14;100.00;101056.20;1666950;85;21590;-70
2022/10/09 02:10:41;;;;;;;130.05;61.85;;;;;;;10.14;100.00;101045.08;1683818;84;21095;-70
2022/10/09 02:13:09;;;;;;;107.35;51.88;;;;;;;10.13;100.00;101042.92;1675955;84;21130;-70
2022/10/09 02:15:49;;;;;;;77.42;39.78;;;;;;;10.16;100.00;101042.00;1676561;85;21058;-70
2022/10/09 02:18:23;;;;;;;56.40;28.92;;;;;;;10.21;100.00;101038.36;1662645;85;21566;-70
2022/10/09 02:20:54;;;;;;;45.63;24.45;;;;;;;10.22;100.00;101032.79;1671563;84;21070;-70
2022/10/09 02:23:23;;;;;;;36.48;20.90;;;;;;;10.28;100.00;101035.16;1665507;84;21621;-70
2022/10/09 02:25:52;;;;;;;24.23;14.18;;;;;;;10.29;100.00;101033.41;1668405;85;21147;-70
2022/10/09 02:28:21;;;;;;;28.85;17.37;;;;;;;10.34;100.00;101032.81;1671246;84;21153;-70
2022/10/09 02:31:06;;;;;;;31.57;16.95;;;;;;;10.41;100.00;101026.58;1668723;84;21568;-70
2022/10/09 02:33:35;;;;;;;29.92;16.52;;;;;;;10.40;100.00;101028.33;1665509;84;21098;-70
2022/10/09 02:36:03;;;;;;;22.20;14.20;;;;;;;10.37;100.00;101028.87;1666290;84;21082;-70
2022/10/09 02:38:30;;;;;;;23.67;14.23;;;;;;;10.36;100.00;101021.60;1674610;84;21019;-70
2022/10/09 02:41:01;;;;;;;24.67;13.70;;;;;;;10.38;100.00;101029.25;1665758;84;21527;-70
2022/10/09 02:43:28;;;;;;;24.35;15.28;;;;;;;10.40;100.00;101019.31;1672532;84;21108;-70
2022/10/09 02:45:55;;;;;;;25.52;14.65;;;;;;;10.41;100.00;101018.86;1679327;84;21059;-70
2022/10/09 02:48:23;;;;;;;21.00;13.45;;;;;;;10.41;100.00;101021.44;1671317;84;22439;-70
2022/10/09 02:50:49;;;;;;;25.45;17.07;;;;;;;10.40;100.00;101019.31;1668095;84;21031;-70
2022/10/09 02:53:16;;;;;;;58.42;29.42;;;;;;;10.36;100.00;101022.89;1672572;84;21085;-70
2022/10/09 02:55:45;;;;;;;38.48;22.17;;;;;;;10.23;100.00;101021.14;1663194;84;21034;-70
2022/10/09 02:58:12;;;;;;;46.48;23.73;;;;;;;10.05;100.00;101030.77;1664997;84;21078;-70
2022/10/09 03:00:39;;;;;;;43.38;19.87;;;;;;;9.96;100.00;101033.66;1667432;84;21114;-70
2022/10/09 03:03:06;;;;;;;38.50;19.92;;;;;;;9.89;100.00;101039.43;1670606;84;21524;-70
2022/10/09 03:05:33;;;;;;;39.40;19.07;;;;;;;9.88;100.00;101039.50;1673081;84;21107;-70
2022/10/09 03:08:00;;;;;;;38.80;19.23;;;;;;;9.82;100.00;101036.68;1678658;84;21090;-70
2022/10/09 03:10:27;;;;;;;37.67;18.23;;;;;;;9.77;100.00;101032.98;1666873;84;21034;-70
2022/10/09 03:12:54;;;;;;;37.17;19.12;;;;;;;9.76;100.00;101032.56;1680438;84;21063;-69
2022/10/09 03:15:22;;;;;;;34.30;18.27;;;;;;;9.79;100.00;101040.20;1689619;84;21541;-70
2022/10/09 03:17:48;;;;;;;29.67;16.20;;;;;;;9.81;100.00;101036.27;1670973;84;21086;-69
2022/10/09 03:20:18;;;;;;;23.75;13.60;;;;;;;9.98;100.00;101031.42;1666973;85;21555;-70
2022/10/09 03:22:45;;;;;;;22.32;13.32;;;;;;;10.13;100.00;101020.22;1672509;84;21137;-69
2022/10/09 03:25:12;;;;;;;22.75;13.48;;;;;;;10.25;100.00;101008.22;1653989;84;21090;-69
2022/10/09 03:27:39;;;;;;;28.83;13.20;;;;;;;10.39;100.00;101009.06;1678328;84;21137;-70
2022/10/09 03:30:07;;;;;;;22.67;14.05;;;;;;;10.41;100.00;101004.70;1669335;84;21082;-70
2022/10/09 03:32:34;;;;;;;25.00;14.70;;;;;;;10.34;100.00;101009.23;1670099;84;21062;-70
2022/10/09 03:35:02;;;;;;;26.62;15.20;;;;;;;10.25;100.00;100999.67;1671037;84;21030;-70
2022/10/09 03:37:30;;;;;;;31.80;15.30;;;;;;;10.16;100.00;101008.11;1668505;84;21102;-70
2022/10/09 03:39:58;;;;;;;25.97;14.47;;;;;;;10.09;100.00;101002.76;1672396;84;21151;-70
2022/10/09 03:42:25;;;;;;;22.25;13.62;;;;;;;10.11;100.00;100999.69;1681695;83;21078;-70
2022/10/09 03:44:52;;;;;;;26.95;13.93;;;;;;;10.19;100.00;100989.97;1671758;84;21081;-70
2022/10/09 03:47:21;;;;;;;37.98;18.82;;;;;;;10.34;100.00;100980.93;1666645;84;21125;-70
2022/10/09 03:49:48;;;;;;;24.25;13.70;;;;;;;10.31;100.00;100981.48;1668864;84;21059;-70
2022/10/09 03:52:15;;;;;;;31.73;15.85;;;;;;;10.37;100.00;100983.38;1672607;84;21055;-70
2022/10/09 03:54:42;;;;;;;25.37;15.05;;;;;;;10.33;100.00;100985.66;1668035;84;21056;-70
2022/10/09 03:57:09;;;;;;;35.23;16.12;;;;;;;10.28;100.00;100987.55;1673984;84;21066;-70
2022/10/09 03:59:37;;;;;;;29.85;15.53;;;;;;;10.20;100.00;100984.41;1667643;84;21511;-71
2022/10/09 04:02:03;;;;;;;24.37;15.25;;;;;;;10.18;100.00;100988.31;1673388;84;21530;-71
2022/10/09 04:04:30;;;;;;;23.15;14.73;;;;;;;10.15;100.00;100986.28;1668523;85;21133;-70
2022/10/09 04:06:58;;;;;;;28.17;14.70;;;;;;;10.08;100.00;100983.09;1670382;84;21046;-70
2022/10/09 04:09:26;;;;;;;19.82;13.40;;;;;;;10.07;100.00;100985.70;1662300;84;21101;-71
2022/10/09 04:11:54;;;;;;;21.80;14.03;;;;;;;10.03;100.00;100983.23;1665131;84;21038;-70
2022/10/09 04:14:21;;;;;;;20.70;14.05;;;;;;;10.02;100.00;100977.70;1673213;83;21118;-70
2022/10/09 04:16:49;;;;;;;22.10;14.00;;;;;;;10.01;100.00;100979.03;1665324;83;21016;-71
2022/10/09 04:19:17;;;;;;;19.30;13.62;;;;;;;10.01;100.00;100977.75;1670679;83;21512;-70
2022/10/09 04:21:44;;;;;;;20.50;12.88;;;;;;;9.93;100.00;100976.72;1678970;83;21031;-70
2022/10/09 04:24:11;;;;;;;19.98;12.80;;;;;;;9.88;100.00;100982.94;1687181;84;21002;-70
2022/10/09 04:26:38;;;;;;;18.10;12.37;;;;;;;9.87;100.00;100994.09;1682883;84;21091;-70
2022/10/09 04:29:05;;;;;;;21.50;13.85;;;;;;;9.91;100.00;100986.67;1672881;84;21024;-70
2022/10/09 04:31:32;;;;;;;22.15;13.85;;;;;;;10.13;100.00;100978.61;1685395;84;21113;-70
2022/10/09 04:34:00;;;;;;;18.95;14.00;;;;;;;10.52;100.00;100976.86;1671015;84;21039;-70
2022/10/09 04:36:26;;;;;;;23.77;13.78;;;;;;;10.78;100.00;100963.45;1675640;84;21048;-70
2022/10/09 04:38:55;;;;;;;20.05;13.22;;;;;;;10.95;100.00;100966.70;1685319;83;21556;-70
2022/10/09 04:41:22;;;;;;;21.97;13.40;;;;;;;11.09;100.00;100970.00;1685302;84;21086;-71
2022/10/09 04:43:55;;;;;;;20.52;13.00;;;;;;;11.21;100.00;100970.39;1671267;84;21039;-69
2022/10/09 04:46:23;;;;;;;20.12;12.93;;;;;;;11.33;100.00;100970.32;1685262;84;21146;-70
2022/10/09 04:48:50;;;;;;;19.10;12.43;;;;;;;11.41;100.00;100979.05;1692180;83;21030;-70
2022/10/09 04:51:17;;;;;;;18.65;12.82;;;;;;;11.50;100.00;100977.86;1670779;84;21051;-70
2022/10/09 04:53:44;;;;;;;18.35;12.33;;;;;;;11.59;100.00;100970.56;1682818;83;21387;-70
2022/10/09 04:56:16;;;;;;;17.23;11.95;;;;;;;11.69;100.00;100969.74;1681133;83;21039;-70
2022/10/09 04:58:44;;;;;;;18.20;12.15;;;;;;;11.75;100.00;100967.37;1679366;84;21530;-70
2022/10/09 05:01:16;;;;;;;17.45;11.78;;;;;;;11.81;100.00;100969.69;1673232;84;22283;-70
2022/10/09 05:03:44;;;;;;;16.87;11.70;;;;;;;11.88;100.00;100972.41;1674171;84;20991;-70
2022/10/09 05:06:13;;;;;;;17.12;11.48;;;;;;;11.97;100.00;100973.79;1668179;85;21047;-70
2022/10/09 05:08:43;;;;;;;19.05;11.53;;;;;;;12.03;100.00;100979.98;1617263;87;21195;-70
2022/10/09 05:11:18;;;;;;;14.90;10.63;;;;;;;12.03;100.00;100973.53;1683579;83;21068;-70
2022/10/09 05:13:49;;;;;;;15.70;10.15;;;;;;;12.04;100.00;100968.73;1692000;83;21071;-70
2022/10/09 05:16:20;;;;;;;14.65;9.45;;;;;;;12.19;100.00;100981.45;1690678;83;21047;-70
2022/10/09 05:18:51;;;;;;;13.43;9.40;;;;;;;12.28;100.00;100985.38;1692293;84;21129;-70
2022/10/09 05:21:19;;;;;;;14.23;10.10;;;;;;;12.36;100.00;100985.87;1657837;86;21152;-70
2022/10/09 05:23:48;;;;;;;15.55;10.28;;;;;;;12.43;100.00;100991.16;1645540;86;21495;-70
2022/10/09 05:26:19;;;;;;;18.95;10.35;;;;;;;12.49;100.00;100995.20;1687728;84;21533;-70
2022/10/09 05:28:48;;;;;;;13.60;10.08;;;;;;;12.55;100.00;101003.53;1693936;84;21528;-70
2022/10/09 05:31:23;;;;;;;17.27;11.22;;;;;;;12.63;100.00;101003.17;1682408;84;21084;-70
2022/10/09 05:33:50;;;;;;;16.35;11.18;;;;;;;12.67;100.00;101012.91;1652140;85;21081;-70
2022/10/09 05:36:18;;;;;;;20.85;11.70;;;;;;;12.68;100.00;101012.02;1691939;84;21040;-70
2022/10/09 05:38:46;;;;;;;18.42;11.38;;;;;;;12.80;100.00;101019.22;1680408;84;21134;-70
2022/10/09 05:41:16;;;;;;;17.67;12.03;;;;;;;12.89;100.00;101016.20;1685877;84;21056;-70
2022/10/09 05:43:47;;;;;;;18.07;12.23;;;;;;;12.89;100.00;101016.20;1684736;84;21638;-70
2022/10/09 05:46:22;;;;;;;19.85;12.40;;;;;;;12.97;100.00;101011.98;1679183;84;22521;-70
2022/10/09 05:49:04;;;;;;;13.90;10.55;;;;;;;13.01;100.00;101018.22;1681069;84;21064;-70
2022/10/09 05:51:35;;;;;;;19.55;11.00;;;;;;;13.06;100.00;101018.03;1677830;84;21047;-70
2022/10/09 05:54:03;;;;;;;15.85;10.32;;;;;;;13.15;100.00;101005.95;1673336;85;21036;-70
2022/10/09 05:56:36;;;;;;;20.45;10.98;;;;;;;13.25;100.00;101012.83;1682540;84;21059;-69
2022/10/09 05:59:07;;;;;;;15.88;9.58;;;;;;;13.35;100.00;101003.75;1697999;84;21165;-70
2022/10/09 06:01:41;;;;;;;21.23;9.85;;;;;;;13.47;100.00;101011.85;1694472;83;21543;-70
2022/10/09 06:04:15;;;;;;;16.45;9.78;;;;;;;13.53;100.00;101010.27;1678815;83;21747;-70
2022/10/09 06:06:43;;;;;;;13.20;9.45;;;;;;;13.66;100.00;101008.73;1701624;83;21454;-70
2022/10/09 06:09:11;;;;;;;17.30;9.70;;;;;;;13.81;100.00;101009.75;1694885;83;21095;-70
2022/10/09 06:11:40;;;;;;;15.93;9.68;;;;;;;13.95;100.00;101003.86;1698220;84;21034;-70
2022/10/09 06:14:09;;;;;;;14.63;9.35;;;;;;;14.04;100.00;101003.41;1691130;83;21058;-70
2022/10/09 06:16:42;;;;;;;11.75;8.58;;;;;;;14.14;100.00;101001.20;1692626;84;21022;-70
2022/10/09 06:19:14;;;;;;;;;;;;;;;14.17;100.00;101001.02;1696469;84;21136;-70
2022/10/09 06:21:43;;;;;;;14.40;8.45;;;;;;;14.25;100.00;101000.63;1693803;83;20123;-70
2022/10/09 06:24:19;;;;;;;11.95;8.63;;;;;;;14.36;100.00;100993.16;1695179;83;21515;-70
2022/10/09 06:26:46;;;;;;;13.03;8.85;;;;;;;14.48;100.00;100997.70;1694377;83;21108;-70
2022/10/09 06:29:13;;;;;;;14.10;8.33;;;;;;;14.56;100.00;100998.16;1693258;84;21062;-71
2022/10/09 06:31:42;;;;;;;16.12;9.00;;;;;;;14.60;100.00;101001.44;1691856;84;21039;-70
2022/10/09 06:34:09;;;;;;;14.07;8.58;;;;;;;14.73;100.00;100999.84;1694578;84;21095;-70
2022/10/09 06:36:36;;;;;;;16.15;8.70;;;;;;;14.75;100.00;101007.54;1692841;84;21047;-70
2022/10/09 06:39:06;;;;;;;13.35;8.35;;;;;;;14.80;100.00;101007.68;1695467;83;21189;-70
2022/10/09 06:41:34;;;;;;;14.38;8.53;;;;;;;14.86;100.00;101014.27;1695190;83;21054;-70
2022/10/09 06:44:07;;;;;;;13.10;8.35;;;;;;;14.89;100.00;101024.48;1689886;83;21039;-70
2022/10/09 06:46:39;;;;;;;18.00;8.58;;;;;;;14.99;100.00;101019.64;1692628;84;21637;-70
2022/10/09 06:49:08;;;;;;;12.90;8.35;;;;;;;15.02;100.00;101020.31;1688231;84;21034;-70
2022/10/09 06:51:37;;;;;;;14.35;8.50;;;;;;;15.15;100.00;101014.45;1671984;84;21135;-70
2022/10/09 06:54:12;;;;;;;14.73;8.18;;;;;;;15.16;100.00;101020.83;1693877;83;21110;-70
2022/10/09 06:56:40;;;;;;;13.65;8.20;;;;;;;15.21;100.00;101018.01;1695169;84;21544;-70
2022/10/09 06:59:08;;;;;;;13.60;8.40;;;;;;;15.39;100.00;101012.27;1688745;84;21055;-70
2022/10/09 07:01:36;;;;;;;12.58;7.80;;;;;;;15.52;100.00;101012.39;1693219;83;21087;-70
2022/10/09 07:04:08;;;;;;;14.00;8.00;;;;;;;15.64;100.00;101003.91;1676093;84;21074;-70
2022/10/09 07:06:41;;;;;;;11.40;8.00;;;;;;;15.74;100.00;101003.78;1693762;83;21102;-70
2022/10/09 07:09:11;;;;;;;13.05;8.00;;;;;;;15.86;100.00;101005.30;1692206;83;21570;-70
2022/10/09 07:11:43;;;;;;;16.00;8.38;;;;;;;15.92;100.00;101008.38;1686001;84;21037;-70
2022/10/09 07:14:12;;;;;;;16.87;7.35;;;;;;;15.95;100.00;101006.05;1691820;83;21048;-70
2022/10/09 07:16:43;;;;;;;17.50;8.33;;;;;;;16.10;100.00;101009.49;1693975;83;21496;-70
2022/10/09 07:19:13;;;;;;;14.20;8.45;;;;;;;16.18;100.00;101009.43;1680333;84;21028;-70
2022/10/09 07:21:44;;;;;;;13.03;8.03;;;;;;;16.25;100.00;101006.47;1683288;84;21092;-70
2022/10/09 07:24:12;;;;;;;16.73;8.70;;;;;;;16.33;100.00;101004.24;1685859;84;21028;-70
2022/10/09 07:26:43;;;;;;;18.98;8.55;;;;;;;16.39;100.00;100998.67;1685405;84;21515;-70
2022/10/09 07:29:13;;;;;;;15.48;8.18;;;;;;;16.49;100.00;101001.55;1690182;84;21095;-70
2022/10/09 07:31:40;;;;;;;17.25;9.15;;;;;;;16.58;100.00;100996.60;1650952;84;21080;-70
2022/10/09 07:34:07;;;;;;;13.75;8.15;;;;;;;16.65;100.00;100994.95;1647678;85;21114;-70
2022/10/09 07:36:35;;;;;;;14.35;8.23;;;;;;;16.63;100.00;100993.74;1705840;83;21063;-70
2022/10/09 07:39:03;;;;;;;13.62;8.38;;;;;;;16.74;100.00;100995.19;1691272;84;21086;-70
2022/10/09 07:41:30;;;;;;;14.83;7.83;;;;;;;16.86;100.00;100998.01;1698246;83;21172;-70
2022/10/09 07:43:58;;;;;;;13.08;8.05;;;;;;;16.87;100.00;100994.45;1689972;83;21039;-70
2022/10/09 07:46:27;;;;;;;12.55;7.50;;;;;;;16.82;100.00;100989.55;1696778;83;21090;-70
2022/10/09 07:48:54;;;;;;;11.25;7.42;;;;;;;16.99;100.00;100988.04;1696090;83;21513;-70
2022/10/09 07:51:24;;;;;;;17.67;7.70;;;;;;;17.07;100.00;100991.91;1699522;84;21153;-70
2022/10/09 07:53:52;;;;;;;10.20;6.55;;;;;;;17.13;100.00;100992.38;1692801;83;21334;-70
2022/10/09 07:56:31;;;;;;;13.50;7.10;;;;;;;17.24;100.00;100995.57;1695672;83;21035;-70
2022/10/09 07:59:03;;;;;;;13.13;7.03;;;;;;;17.13;100.00;100997.57;1692465;83;20997;-70
2022/10/09 08:01:32;;;;;;;12.63;7.20;;;;;;;17.27;100.00;101003.64;1696747;83;21097;-70
2022/10/09 08:04:01;;;;;;;17.70;7.65;;;;;;;17.27;100.00;100992.76;1689747;84;21067;-70
2022/10/09 08:06:29;;;;;;;10.20;6.83;;;;;;;17.34;100.00;101000.55;1695777;84;21070;-70
2022/10/09 08:08:59;;;;;;;11.78;6.45;;;;;;;17.38;100.00;100996.81;1689466;84;21079;-70
2022/10/09 08:11:29;;;;;;;12.03;6.65;;;;;;;17.45;100.00;100996.41;1690616;83;21012;-70
2022/10/09 08:13:56;;;;;;;12.85;6.80;;;;;;;17.43;100.00;100992.61;1697911;83;21062;-70
2022/10/09 08:16:25;;;;;;;14.75;6.65;;;;;;;17.55;100.00;100983.98;1694574;83;21038;-70
2022/10/09 08:18:58;;;;;;;13.48;6.70;;;;;;;17.79;100.00;100991.12;1690329;83;21091;-70
2022/10/09 08:21:31;;;;;;;12.43;6.55;;;;;;;17.96;100.00;100984.80;1692147;83;21130;-70
2022/10/09 08:23:57;;;;;;;11.60;6.78;;;;;;;18.04;100.00;100980.38;1691816;83;21086;-70
2022/10/09 08:26:27;;;;;;;12.20;6.08;;;;;;;18.25;100.00;100979.37;1693457;83;21982;-70
2022/10/09 08:29:01;;;;;;;11.60;6.40;;;;;;;18.33;100.00;100979.67;1700504;83;21547;-70
2022/10/09 08:31:30;;;;;;;13.83;5.90;;;;;;;18.55;100.00;100980.32;1688292;83;21043;-71
2022/10/09 08:34:01;;;;;;;9.45;6.67;;;;;;;18.87;100.00;100979.86;1692533;83;21102;-71
2022/10/09 08:36:29;;;;;;;12.65;6.00;;;;;;;18.96;100.00;100986.56;1698336;83;21044;-71
2022/10/09 08:38:58;;;;;;;11.55;6.10;;;;;;;19.12;100.00;100985.44;1698451;84;21008;-71
2022/10/09 08:41:42;;;;;;;9.90;6.37;;;;;;;19.07;100.00;100987.56;1699370;83;21071;-71
2022/10/09 08:44:14;;;;;;;17.77;6.50;;;;;;;19.48;100.00;100978.47;1693732;84;21102;-71
2022/10/09 08:46:53;;;;;;;12.90;6.30;;;;;;;19.70;100.00;100972.00;1692840;83;21091;-71
2022/10/09 08:49:50;;;;;;;12.93;6.40;;;;;;;19.73;100.00;100964.46;1695185;83;21590;-69
2022/10/09 08:52:43;;;;;;;10.88;6.35;;;;;;;19.77;100.00;100965.89;1652210;84;21062;-69
2022/10/09 08:55:34;;;;;;;10.55;6.62;;;;;;;19.45;100.00;100962.56;1682458;83;21028;-69
2022/10/09 08:58:05;;;;;;;15.38;7.15;;;;;;;19.28;100.00;100957.30;1695313;83;21039;-70
2022/10/09 09:00:41;;;;;;;16.42;7.80;;;;;;;19.11;100.00;100956.38;1690790;83;21111;-71
2022/10/09 09:03:39;;;;;;;9.50;7.03;;;;;;;19.30;100.00;100948.88;1689856;84;21078;-71
2022/10/09 09:06:58;;;;;;;12.93;6.67;;;;;;;19.33;100.00;100946.51;1665027;84;21114;-70
2022/10/09 09:09:46;;;;;;;11.18;5.97;;;;;;;19.57;100.00;100941.24;1685984;84;21062;-71
2022/10/09 09:12:36;;;;;;;10.45;6.42;;;;;;;19.50;100.00;100942.63;1686312;84;21132;-71
2022/10/09 09:15:20;;;;;;;10.03;5.55;;;;;;;19.44;100.00;100933.95;1688231;84;21162;-70
2022/10/09 09:18:12;;;;;;;10.95;5.95;;;;;;;19.57;100.00;100940.76;1691311;83;21043;-70
2022/10/09 09:21:03;;;;;;;12.18;5.60;;;;;;;19.68;100.00;100939.94;1688092;83;21027;-70
2022/10/09 09:23:38;;;;;;;13.28;5.87;;;;;;;19.84;100.00;100934.91;1687774;84;21036;-70
2022/10/09 09:26:15;;;;;;;9.13;5.95;;;;;;;19.99;100.00;100938.48;1690912;84;21052;-70
2022/10/09 09:28:44;;;;;;;10.85;5.80;;;;;;;20.17;100.00;100935.37;1691375;83;21031;-71
2022/10/09 09:31:29;;;;;;;10.98;5.70;;;;;;;20.13;100.00;100932.20;1698809;83;21118;-71
2022/10/09 09:33:59;;;;;;;;;;;;;;;20.10;100.00;100938.13;1693042;83;21583;-71
2022/10/09 09:36:31;;;;;;;9.70;5.50;;;;;;;20.05;100.00;100930.62;1682529;84;20115;-70
2022/10/09 09:38:58;;;;;;;12.58;5.35;;;;;;;20.14;100.00;100923.88;1693318;84;21066;-70
2022/10/09 09:41:27;;;;;;;13.28;5.58;;;;;;;20.07;100.00;100920.88;1690219;83;21035;-71
2022/10/09 09:43:54;;;;;;;14.90;6.37;;;;;;;20.17;100.00;100916.62;1694908;82;21142;-70
2022/10/09 09:46:25;;;;;;;11.55;6.05;;;;;;;20.30;100.00;100915.19;1693465;83;21094;-70
2022/10/09 09:48:52;;;;;;;11.97;5.50;;;;;;;20.43;100.00;100920.75;1700658;84;21107;-70
2022/10/09 09:51:26;;;;;;;7.92;5.12;;;;;;;20.56;100.00;100923.58;1693424;83;21051;-70
2022/10/09 09:54:02;;;;;;;11.00;5.50;;;;;;;20.71;100.00;100915.48;1693224;83;21038;-70
2022/10/09 09:56:39;;;;;;;10.58;5.47;;;;;;;20.96;100.00;100916.94;1692892;83;21035;-70
2022/10/09 09:59:09;;;;;;;15.23;6.53;;;;;;;21.13;100.00;100915.58;1700074;83;21051;-71
2022/10/09 10:01:36;;;;;;;13.90;6.28;;;;;;;21.08;100.00;100917.73;1694234;83;21080;-70
2022/10/09 10:04:04;;;;;;;11.18;6.15;;;;;;;20.93;100.00;100921.13;1692905;84;21098;-70
2022/10/09 10:06:35;;;;;;;10.98;6.20;;;;;;;21.05;100.00;100918.82;1703736;83;21048;-70
2022/10/09 10:09:15;;;;;;;10.45;6.08;;;;;;;20.93;100.00;100917.20;1694260;83;21114;-70
2022/10/09 10:11:58;;;;;;;12.63;6.10;;;;;;;20.77;100.00;100911.89;1671905;84;21083;-70
2022/10/09 10:14:26;;;;;;;13.30;6.22;;;;;;;20.71;100.00;100906.33;1686091;84;21158;-71
2022/10/09 10:16:56;;;;;;;8.65;5.65;;;;;;;20.70;100.00;100898.12;1683353;84;21067;-70
2022/10/09 10:19:34;;;;;;;10.53;5.67;;;;;;;20.66;100.00;100900.63;1685492;84;21063;-70
2022/10/09 10:22:05;;;;;;;14.58;5.70;;;;;;;20.69;100.00;100893.86;1681602;84;21040;-70
2022/10/09 10:24:40;;;;;;;10.90;5.45;;;;;;;20.76;100.00;100890.63;1688440;84;21194;-70
2022/10/09 10:27:20;;;;;;;;;;;;;;;20.59;100.00;100893.76;1654252;86;21036;-70
2022/10/09 10:29:49;;;;;;;9.45;5.70;;;;;;;20.49;100.00;100891.49;1633594;88;20126;-71
2022/10/09 10:32:24;;;;;;;14.85;6.28;;;;;;;20.76;100.00;100880.61;1679027;84;21141;-71
2022/10/09 10:35:02;;;;;;;11.63;6.03;;;;;;;20.67;100.00;100882.69;1690126;84;21097;-70
2022/10/09 10:37:59;;;;;;;16.75;6.53;;;;;;;20.67;100.00;100876.14;1670756;84;21016;-70
2022/10/09 10:40:34;;;;;;;10.68;6.08;;;;;;;20.68;100.00;100868.63;1684525;84;21047;-70
2022/10/09 10:43:12;;;;;;;11.45;6.20;;;;;;;20.73;100.00;100861.26;1692404;84;21032;-71
2022/10/09 10:46:10;;;;;;;9.33;5.58;;;;;;;20.70;100.00;100861.49;1684655;84;21039;-70
2022/10/09 10:48:45;;;;;;;12.75;6.20;;;;;;;20.67;100.00;100853.42;1684543;84;21071;-70
2022/10/09 10:51:47;;;;;;;11.75;6.15;;;;;;;20.54;100.00;100857.48;1691049;84;21161;-70
2022/10/09 10:54:56;;;;;;;14.30;6.22;;;;;;;20.56;100.00;100838.58;1677324;84;21076;-70
2022/10/09 10:57:34;;;;;;;10.63;5.70;;;;;;;20.66;100.00;100848.31;1688473;84;21048;-71
2022/10/09 11:00:09;;;;;;;13.53;5.92;;;;;;;20.66;100.00;100840.46;1658398;84;21078;-70
2022/10/09 11:03:04;;;;;;;11.88;5.95;;;;;;;20.77;100.00;100841.73;1690309;83;21082;-71
2022/10/09 11:05:43;;;;;;;9.90;6.00;;;;;;;20.76;100.00;100848.77;1699176;83;21528;-70
2022/10/09 11:08:47;;;;;;;13.00;6.12;;;;;;;20.82;100.00;100843.48;1671072;84;21083;-71
2022/10/09 11:11:33;;;;;;;7.83;5.12;;;;;;;21.09;100.00;100837.77;1690317;83;21040;-70
2022/10/09 11:14:26;;;;;;;13.38;5.33;;;;;;;21.08;100.00;100835.27;1688303;83;21078;-71
2022/10/09 11:17:29;;;;;;;9.18;5.35;;;;;;;21.13;100.00;100835.73;1694542;84;21044;-71
2022/10/09 11:20:27;;;;;;;12.63;6.00;;;;;;;21.07;100.00;100834.45;1691785;83;21028;-71
2022/10/09 11:23:14;;;;;;;10.60;5.92;;;;;;;21.32;100.00;100824.05;1688644;83;21088;-70
2022/10/09 11:25:53;;;;;;;11.70;6.60;;;;;;;21.49;100.00;100820.05;1688267;83;21563;-70
2022/10/09 11:28:27;;;;;;;12.98;7.12;;;;;;;21.40;100.00;100823.41;1692264;84;21519;-71
2022/10/09 11:31:02;;;;;;;10.32;5.70;;;;;;;21.42;100.00;100830.66;1691096;83;21016;-70
2022/10/09 11:33:43;;;;;;;11.53;5.90;;;;;;;21.36;100.00;100829.86;1693747;83;21098;-71